Terminal Aerodrome Forecast
Issued by NWS Charleston, WV

Current Version | Previous Version | Graphics & Text | Print | Product List | Glossary On
Versions: 1 2 3 4 5 6 7 8 9 10 11 12 13 14 15 16 17 18 19 20
000
FTUS41 KRLX 222300
TAFPKB
TAF
KPKB 222329Z 2300/2324 18005KT P6SM SKC
     FM230800 VRB03KT 6SM BR SKC
     FM231100 22004KT 5SM BR FEW050
     FM231400 23005KT 6SM BR SCT050
     FM231600 24007KT P6SM VCTS SCT045CB
     FM232000 28007KT 6SM TSRA BR BKN040CB
      AMD NOT SKED=

USA.gov is the U.S. government's official web portal to all federal, state and local government web resources and services.